sensor_id;sensor_type;location;lat;lon;timestamp;P1;durP1;ratioP1;P2;durP2;ratioP2
16246;SDS011;8231;50.866;7.944;2023-12-07T00:01:22;31.65;;;25.92;;
16246;SDS011;8231;50.866;7.944;2023-12-07T00:03:50;28.95;;;24.95;;
16246;SDS011;8231;50.866;7.944;2023-12-07T00:06:18;28.98;;;24.48;;
16246;SDS011;8231;50.866;7.944;2023-12-07T00:08:47;26.98;;;23.52;;
16246;SDS011;8231;50.866;7.944;2023-12-07T00:11:15;24.85;;;22.35;;
16246;SDS011;8231;50.866;7.944;2023-12-07T00:13:45;28.90;;;23.55;;
16246;SDS011;8231;50.866;7.944;2023-12-07T00:16:13;26.60;;;23.42;;
16246;SDS011;8231;50.866;7.944;2023-12-07T00:18:41;26.08;;;23.38;;
16246;SDS011;8231;50.866;7.944;2023-12-07T00:21:09;25.63;;;22.92;;
16246;SDS011;8231;50.866;7.944;2023-12-07T00:23:37;31.52;;;24.58;;
16246;SDS011;8231;50.866;7.944;2023-12-07T00:26:06;28.75;;;23.67;;
16246;SDS011;8231;50.866;7.944;2023-12-07T00:28:34;29.45;;;24.73;;
16246;SDS011;8231;50.866;7.944;2023-12-07T00:31:04;27.63;;;23.73;;
16246;SDS011;8231;50.866;7.944;2023-12-07T00:33:32;27.95;;;23.70;;
16246;SDS011;8231;50.866;7.944;2023-12-07T00:36:00;31.27;;;26.60;;
16246;SDS011;8231;50.866;7.944;2023-12-07T00:38:28;30.42;;;26.02;;
16246;SDS011;8231;50.866;7.944;2023-12-07T00:40:58;37.42;;;29.75;;
16246;SDS011;8231;50.866;7.944;2023-12-07T00:43:26;31.35;;;25.25;;
16246;SDS011;8231;50.866;7.944;2023-12-07T00:45:55;29.03;;;25.00;;
16246;SDS011;8231;50.866;7.944;2023-12-07T00:48:25;28.85;;;25.75;;
16246;SDS011;8231;50.866;7.944;2023-12-07T00:50:54;45.53;;;31.98;;
16246;SDS011;8231;50.866;7.944;2023-12-07T00:53:22;32.78;;;28.38;;
16246;SDS011;8231;50.866;7.944;2023-12-07T00:55:50;31.13;;;26.42;;
16246;SDS011;8231;50.866;7.944;2023-12-07T00:58:18;27.75;;;24.58;;
16246;SDS011;8231;50.866;7.944;2023-12-07T01:00:46;34.10;;;26.20;;
16246;SDS011;8231;50.866;7.944;2023-12-07T01:03:16;30.63;;;26.00;;
16246;SDS011;8231;50.866;7.944;2023-12-07T01:05:47;29.90;;;25.00;;
16246;SDS011;8231;50.866;7.944;2023-12-07T01:08:15;31.75;;;26.75;;
16246;SDS011;8231;50.866;7.944;2023-12-07T01:10:43;29.67;;;25.10;;
16246;SDS011;8231;50.866;7.944;2023-12-07T01:13:11;29.42;;;26.02;;
16246;SDS011;8231;50.866;7.944;2023-12-07T01:15:39;29.63;;;23.52;;
16246;SDS011;8231;50.866;7.944;2023-12-07T01:18:07;30.63;;;25.17;;
16246;SDS011;8231;50.866;7.944;2023-12-07T01:20:35;30.83;;;23.97;;
16246;SDS011;8231;50.866;7.944;2023-12-07T01:23:05;31.15;;;24.80;;
16246;SDS011;8231;50.866;7.944;2023-12-07T01:25:35;27.45;;;23.75;;
16246;SDS011;8231;50.866;7.944;2023-12-07T01:28:03;31.75;;;24.73;;
16246;SDS011;8231;50.866;7.944;2023-12-07T01:30:31;31.42;;;24.92;;
16246;SDS011;8231;50.866;7.944;2023-12-07T01:33:00;28.63;;;23.85;;
16246;SDS011;8231;50.866;7.944;2023-12-07T01:35:28;29.98;;;25.00;;
16246;SDS011;8231;50.866;7.944;2023-12-07T01:37:56;28.20;;;24.25;;
16246;SDS011;8231;50.866;7.944;2023-12-07T01:40:25;29.98;;;24.17;;
16246;SDS011;8231;50.866;7.944;2023-12-07T01:42:53;32.85;;;26.08;;
16246;SDS011;8231;50.866;7.944;2023-12-07T01:45:21;28.63;;;25.13;;
16246;SDS011;8231;50.866;7.944;2023-12-07T01:47:50;31.70;;;25.63;;
16246;SDS011;8231;50.866;7.944;2023-12-07T01:50:20;29.45;;;24.48;;
16246;SDS011;8231;50.866;7.944;2023-12-07T01:52:52;29.67;;;24.53;;
16246;SDS011;8231;50.866;7.944;2023-12-07T01:55:25;32.85;;;25.95;;
16246;SDS011;8231;50.866;7.944;2023-12-07T01:57:56;36.13;;;27.55;;
16246;SDS011;8231;50.866;7.944;2023-12-07T02:00:24;28.45;;;23.75;;
16246;SDS011;8231;50.866;7.944;2023-12-07T02:02:54;30.20;;;25.33;;
16246;SDS011;8231;50.866;7.944;2023-12-07T02:05:23;46.47;;;32.22;;
16246;SDS011;8231;50.866;7.944;2023-12-07T02:07:52;28.70;;;23.40;;
16246;SDS011;8231;50.866;7.944;2023-12-07T02:10:21;32.30;;;25.13;;
16246;SDS011;8231;50.866;7.944;2023-12-07T02:12:51;35.53;;;24.97;;
16246;SDS011;8231;50.866;7.944;2023-12-07T02:15:20;33.55;;;25.45;;
16246;SDS011;8231;50.866;7.944;2023-12-07T02:17:49;34.55;;;25.50;;
16246;SDS011;8231;50.866;7.944;2023-12-07T02:20:25;31.27;;;25.35;;
16246;SDS011;8231;50.866;7.944;2023-12-07T02:22:56;28.25;;;23.27;;
16246;SDS011;8231;50.866;7.944;2023-12-07T02:25:29;32.05;;;24.77;;
16246;SDS011;8231;50.866;7.944;2023-12-07T02:28:04;31.92;;;25.60;;
16246;SDS011;8231;50.866;7.944;2023-12-07T02:30:33;33.60;;;26.05;;
16246;SDS011;8231;50.866;7.944;2023-12-07T02:33:01;34.15;;;27.10;;
16246;SDS011;8231;50.866;7.944;2023-12-07T02:35:29;32.60;;;25.70;;
16246;SDS011;8231;50.866;7.944;2023-12-07T02:38:00;33.77;;;26.47;;
16246;SDS011;8231;50.866;7.944;2023-12-07T02:40:29;32.15;;;25.20;;
16246;SDS011;8231;50.866;7.944;2023-12-07T02:42:58;33.05;;;25.60;;
16246;SDS011;8231;50.866;7.944;2023-12-07T02:45:29;31.75;;;24.75;;
16246;SDS011;8231;50.866;7.944;2023-12-07T02:47:57;34.75;;;25.38;;
16246;SDS011;8231;50.866;7.944;2023-12-07T02:50:25;34.58;;;25.85;;
16246;SDS011;8231;50.866;7.944;2023-12-07T02:52:54;39.90;;;27.93;;
16246;SDS011;8231;50.866;7.944;2023-12-07T02:55:23;34.00;;;26.75;;
16246;SDS011;8231;50.866;7.944;2023-12-07T02:57:51;35.03;;;26.85;;
16246;SDS011;8231;50.866;7.944;2023-12-07T03:00:19;32.73;;;24.83;;
16246;SDS011;8231;50.866;7.944;2023-12-07T03:02:49;37.45;;;27.30;;
16246;SDS011;8231;50.866;7.944;2023-12-07T03:05:18;32.22;;;25.38;;
16246;SDS011;8231;50.866;7.944;2023-12-07T03:07:49;38.03;;;27.65;;
16246;SDS011;8231;50.866;7.944;2023-12-07T03:10:17;35.47;;;27.10;;
16246;SDS011;8231;50.866;7.944;2023-12-07T03:12:45;32.63;;;26.42;;
16246;SDS011;8231;50.866;7.944;2023-12-07T03:15:13;31.37;;;25.40;;
16246;SDS011;8231;50.866;7.944;2023-12-07T03:17:41;34.83;;;27.23;;
16246;SDS011;8231;50.866;7.944;2023-12-07T03:20:12;31.27;;;25.77;;
16246;SDS011;8231;50.866;7.944;2023-12-07T03:22:40;34.93;;;25.80;;
16246;SDS011;8231;50.866;7.944;2023-12-07T03:25:09;37.03;;;26.08;;
16246;SDS011;8231;50.866;7.944;2023-12-07T03:27:37;32.83;;;22.33;;
16246;SDS011;8231;50.866;7.944;2023-12-07T03:30:06;32.13;;;23.23;;
16246;SDS011;8231;50.866;7.944;2023-12-07T03:32:34;32.05;;;24.38;;
16246;SDS011;8231;50.866;7.944;2023-12-07T03:35:02;56.95;;;52.53;;
16246;SDS011;8231;50.866;7.944;2023-12-07T03:37:32;272.07;;;253.90;;
16246;SDS011;8231;50.866;7.944;2023-12-07T03:40:01;29.33;;;22.43;;
16246;SDS011;8231;50.866;7.944;2023-12-07T03:42:31;37.70;;;27.93;;
16246;SDS011;8231;50.866;7.944;2023-12-07T03:45:19;128.37;;;121.27;;
16246;SDS011;8231;50.866;7.944;2023-12-07T03:47:47;141.47;;;133.60;;
16246;SDS011;8231;50.866;7.944;2023-12-07T03:50:15;133.30;;;123.87;;
16246;SDS011;8231;50.866;7.944;2023-12-07T03:52:44;780.60;;;702.23;;
16246;SDS011;8231;50.866;7.944;2023-12-07T03:55:13;657.63;;;534.57;;
16246;SDS011;8231;50.866;7.944;2023-12-07T03:57:41;887.07;;;802.17;;
16246;SDS011;8231;50.866;7.944;2023-12-07T04:00:10;701.60;;;639.50;;
16246;SDS011;8231;50.866;7.944;2023-12-07T04:02:39;709.93;;;650.53;;
16246;SDS011;8231;50.866;7.944;2023-12-07T04:05:08;1280.70;;;901.77;;
16246;SDS011;8231;50.866;7.944;2023-12-07T04:07:36;886.80;;;818.17;;
16246;SDS011;8231;50.866;7.944;2023-12-07T04:10:06;835.40;;;773.47;;
16246;SDS011;8231;50.866;7.944;2023-12-07T04:12:34;901.23;;;821.93;;
16246;SDS011;8231;50.866;7.944;2023-12-07T04:15:03;814.23;;;748.93;;
16246;SDS011;8231;50.866;7.944;2023-12-07T04:17:32;1359.83;;;974.03;;
16246;SDS011;8231;50.866;7.944;2023-12-07T04:20:00;855.23;;;781.43;;
16246;SDS011;8231;50.866;7.944;2023-12-07T04:22:29;787.53;;;728.20;;
16246;SDS011;8231;50.866;7.944;2023-12-07T04:24:57;713.47;;;668.97;;
16246;SDS011;8231;50.866;7.944;2023-12-07T04:27:26;763.97;;;713.30;;
16246;SDS011;8231;50.866;7.944;2023-12-07T04:29:54;747.27;;;699.57;;
16246;SDS011;8231;50.866;7.944;2023-12-07T04:32:23;608.60;;;568.30;;
16246;SDS011;8231;50.866;7.944;2023-12-07T04:34:52;523.43;;;491.13;;
16246;SDS011;8231;50.866;7.944;2023-12-07T04:37:21;508.87;;;476.17;;
16246;SDS011;8231;50.866;7.944;2023-12-07T04:39:50;488.23;;;458.00;;
16246;SDS011;8231;50.866;7.944;2023-12-07T04:42:18;524.73;;;488.90;;
16246;SDS011;8231;50.866;7.944;2023-12-07T04:44:48;556.70;;;515.40;;
16246;SDS011;8231;50.866;7.944;2023-12-07T04:47:16;465.57;;;419.37;;
16246;SDS011;8231;50.866;7.944;2023-12-07T04:49:44;457.20;;;423.57;;
16246;SDS011;8231;50.866;7.944;2023-12-07T04:52:14;594.10;;;548.93;;
16246;SDS011;8231;50.866;7.944;2023-12-07T04:54:42;632.63;;;588.83;;
16246;SDS011;8231;50.866;7.944;2023-12-07T04:57:10;396.07;;;370.53;;
16246;SDS011;8231;50.866;7.944;2023-12-07T04:59:38;321.80;;;295.23;;
16246;SDS011;8231;50.866;7.944;2023-12-07T05:02:08;345.57;;;324.50;;
16246;SDS011;8231;50.866;7.944;2023-12-07T05:04:36;446.93;;;420.97;;
16246;SDS011;8231;50.866;7.944;2023-12-07T05:07:04;327.30;;;303.47;;
16246;SDS011;8231;50.866;7.944;2023-12-07T05:09:33;277.90;;;253.70;;
16246;SDS011;8231;50.866;7.944;2023-12-07T05:12:01;313.30;;;285.37;;
16246;SDS011;8231;50.866;7.944;2023-12-07T05:14:30;279.17;;;260.57;;
16246;SDS011;8231;50.866;7.944;2023-12-07T05:16:58;273.43;;;255.33;;
16246;SDS011;8231;50.866;7.944;2023-12-07T05:19:28;339.93;;;313.67;;
16246;SDS011;8231;50.866;7.944;2023-12-07T05:21:56;321.10;;;299.93;;
16246;SDS011;8231;50.866;7.944;2023-12-07T05:24:24;286.30;;;259.10;;
16246;SDS011;8231;50.866;7.944;2023-12-07T05:26:52;494.03;;;443.97;;
16246;SDS011;8231;50.866;7.944;2023-12-07T05:29:20;234.33;;;216.20;;
16246;SDS011;8231;50.866;7.944;2023-12-07T05:31:48;325.63;;;305.27;;
16246;SDS011;8231;50.866;7.944;2023-12-07T05:34:17;271.83;;;244.47;;
16246;SDS011;8231;50.866;7.944;2023-12-07T05:36:46;365.60;;;341.60;;
16246;SDS011;8231;50.866;7.944;2023-12-07T05:39:15;309.43;;;287.37;;
16246;SDS011;8231;50.866;7.944;2023-12-07T05:41:44;314.93;;;301.03;;
16246;SDS011;8231;50.866;7.944;2023-12-07T05:44:13;167.63;;;155.27;;
16246;SDS011;8231;50.866;7.944;2023-12-07T05:46:47;214.67;;;194.87;;
16246;SDS011;8231;50.866;7.944;2023-12-07T05:49:16;310.33;;;292.53;;
16246;SDS011;8231;50.866;7.944;2023-12-07T05:51:44;226.90;;;205.70;;
16246;SDS011;8231;50.866;7.944;2023-12-07T05:54:14;267.23;;;248.47;;
16246;SDS011;8231;50.866;7.944;2023-12-07T05:56:42;217.80;;;204.10;;
16246;SDS011;8231;50.866;7.944;2023-12-07T05:59:11;270.77;;;248.40;;
16246;SDS011;8231;50.866;7.944;2023-12-07T06:01:40;222.03;;;208.93;;
16246;SDS011;8231;50.866;7.944;2023-12-07T06:04:08;457.70;;;420.53;;
16246;SDS011;8231;50.866;7.944;2023-12-07T06:06:39;313.07;;;292.83;;
16246;SDS011;8231;50.866;7.944;2023-12-07T06:09:09;437.07;;;405.60;;
16246;SDS011;8231;50.866;7.944;2023-12-07T06:11:38;428.17;;;400.80;;
16246;SDS011;8231;50.866;7.944;2023-12-07T06:14:06;342.70;;;319.73;;
16246;SDS011;8231;50.866;7.944;2023-12-07T06:16:35;436.03;;;409.80;;
16246;SDS011;8231;50.866;7.944;2023-12-07T06:19:04;429.77;;;402.20;;
16246;SDS011;8231;50.866;7.944;2023-12-07T06:21:33;510.33;;;477.20;;
16246;SDS011;8231;50.866;7.944;2023-12-07T06:24:01;484.40;;;452.30;;
16246;SDS011;8231;50.866;7.944;2023-12-07T06:26:31;646.27;;;600.90;;
16246;SDS011;8231;50.866;7.944;2023-12-07T06:28:59;685.53;;;635.40;;
16246;SDS011;8231;50.866;7.944;2023-12-07T06:31:27;557.63;;;521.93;;
16246;SDS011;8231;50.866;7.944;2023-12-07T06:33:55;593.53;;;550.03;;
16246;SDS011;8231;50.866;7.944;2023-12-07T06:36:23;593.50;;;547.80;;
16246;SDS011;8231;50.866;7.944;2023-12-07T06:38:52;634.83;;;586.90;;
16246;SDS011;8231;50.866;7.944;2023-12-07T06:41:21;671.80;;;626.03;;
16246;SDS011;8231;50.866;7.944;2023-12-07T06:43:50;605.90;;;559.30;;
16246;SDS011;8231;50.866;7.944;2023-12-07T06:46:22;862.83;;;798.50;;
16246;SDS011;8231;50.866;7.944;2023-12-07T06:48:50;652.40;;;602.87;;
16246;SDS011;8231;50.866;7.944;2023-12-07T06:51:18;633.20;;;573.87;;
16246;SDS011;8231;50.866;7.944;2023-12-07T06:53:46;894.20;;;816.63;;
16246;SDS011;8231;50.866;7.944;2023-12-07T06:56:14;855.13;;;786.43;;
16246;SDS011;8231;50.866;7.944;2023-12-07T06:58:42;797.07;;;734.93;;
16246;SDS011;8231;50.866;7.944;2023-12-07T07:01:12;965.67;;;883.40;;
16246;SDS011;8231;50.866;7.944;2023-12-07T07:03:41;811.47;;;737.87;;
16246;SDS011;8231;50.866;7.944;2023-12-07T07:06:09;31.70;;;21.02;;
16246;SDS011;8231;50.866;7.944;2023-12-07T07:08:38;196.77;;;160.13;;
16246;SDS011;8231;50.866;7.944;2023-12-07T07:11:09;581.13;;;398.80;;
16246;SDS011;8231;50.866;7.944;2023-12-07T07:13:40;1541.17;;;822.67;;
16246;SDS011;8231;50.866;7.944;2023-12-07T07:16:08;1054.23;;;934.57;;
16246;SDS011;8231;50.866;7.944;2023-12-07T07:18:38;1498.93;;;787.47;;
16246;SDS011;8231;50.866;7.944;2023-12-07T07:21:07;1220.03;;;999.90;;
16246;SDS011;8231;50.866;7.944;2023-12-07T07:23:37;1474.07;;;924.53;;
16246;SDS011;8231;50.866;7.944;2023-12-07T07:26:05;1113.93;;;994.07;;
16246;SDS011;8231;50.866;7.944;2023-12-07T07:28:33;870.93;;;756.20;;
16246;SDS011;8231;50.866;7.944;2023-12-07T07:31:01;1634.53;;;936.30;;
16246;SDS011;8231;50.866;7.944;2023-12-07T07:33:31;1242.53;;;836.07;;
16246;SDS011;8231;50.866;7.944;2023-12-07T07:36:00;935.00;;;845.00;;
16246;SDS011;8231;50.866;7.944;2023-12-07T07:38:28;1155.63;;;767.43;;
16246;SDS011;8231;50.866;7.944;2023-12-07T07:40:57;48.30;;;29.30;;
16246;SDS011;8231;50.866;7.944;2023-12-07T07:43:25;818.87;;;735.47;;
16246;SDS011;8231;50.866;7.944;2023-12-07T07:45:53;1021.60;;;931.80;;
16246;SDS011;8231;50.866;7.944;2023-12-07T07:48:21;929.77;;;848.33;;
16246;SDS011;8231;50.866;7.944;2023-12-07T07:50:49;845.38;;;773.53;;
16246;SDS011;8231;50.866;7.944;2023-12-07T07:53:19;900.77;;;821.87;;
16246;SDS011;8231;50.866;7.944;2023-12-07T07:55:47;109.67;;;85.07;;
16246;SDS011;8231;50.866;7.944;2023-12-07T07:58:15;1009.97;;;906.97;;
16246;SDS011;8231;50.866;7.944;2023-12-07T08:00:44;1091.83;;;964.93;;
16246;SDS011;8231;50.866;7.944;2023-12-07T08:03:13;877.97;;;784.03;;
16246;SDS011;8231;50.866;7.944;2023-12-07T08:05:41;926.53;;;651.20;;
16246;SDS011;8231;50.866;7.944;2023-12-07T08:08:09;332.87;;;289.60;;
16246;SDS011;8231;50.866;7.944;2023-12-07T08:10:39;33.70;;;25.47;;
16246;SDS011;8231;50.866;7.944;2023-12-07T08:13:21;46.67;;;26.57;;
16246;SDS011;8231;50.866;7.944;2023-12-07T08:15:50;46.63;;;28.17;;
16246;SDS011;8231;50.866;7.944;2023-12-07T08:18:22;36.77;;;26.33;;
16246;SDS011;8231;50.866;7.944;2023-12-07T08:20:50;85.78;;;28.67;;
16246;SDS011;8231;50.866;7.944;2023-12-07T08:23:18;85.20;;;27.43;;
16246;SDS011;8231;50.866;7.944;2023-12-07T08:25:48;43.22;;;26.40;;
16246;SDS011;8231;50.866;7.944;2023-12-07T08:28:16;37.20;;;23.37;;
16246;SDS011;8231;50.866;7.944;2023-12-07T08:30:45;27.73;;;19.83;;
16246;SDS011;8231;50.866;7.944;2023-12-07T08:33:13;28.87;;;21.97;;
16246;SDS011;8231;50.866;7.944;2023-12-07T08:35:41;54.90;;;29.50;;
16246;SDS011;8231;50.866;7.944;2023-12-07T08:38:09;89.78;;;29.10;;
16246;SDS011;8231;50.866;7.944;2023-12-07T08:40:37;130.85;;;30.48;;
16246;SDS011;8231;50.866;7.944;2023-12-07T08:43:07;102.82;;;28.10;;
16246;SDS011;8231;50.866;7.944;2023-12-07T08:45:35;54.75;;;26.52;;
16246;SDS011;8231;50.866;7.944;2023-12-07T08:48:05;68.65;;;24.20;;
16246;SDS011;8231;50.866;7.944;2023-12-07T08:50:33;85.22;;;27.40;;
16246;SDS011;8231;50.866;7.944;2023-12-07T08:53:01;64.13;;;27.52;;
16246;SDS011;8231;50.866;7.944;2023-12-07T08:55:31;146.13;;;28.70;;
16246;SDS011;8231;50.866;7.944;2023-12-07T08:57:59;36.57;;;24.40;;
16246;SDS011;8231;50.866;7.944;2023-12-07T09:00:31;61.17;;;29.77;;
16246;SDS011;8231;50.866;7.944;2023-12-07T09:03:00;83.80;;;31.60;;
16246;SDS011;8231;50.866;7.944;2023-12-07T09:05:29;56.83;;;32.17;;
16246;SDS011;8231;50.866;7.944;2023-12-07T09:07:58;40.88;;;32.30;;
16246;SDS011;8231;50.866;7.944;2023-12-07T09:10:26;58.47;;;31.67;;
16246;SDS011;8231;50.866;7.944;2023-12-07T09:12:54;66.83;;;36.07;;
16246;SDS011;8231;50.866;7.944;2023-12-07T09:15:23;58.45;;;35.60;;
16246;SDS011;8231;50.866;7.944;2023-12-07T09:17:52;117.72;;;43.30;;
16246;SDS011;8231;50.866;7.944;2023-12-07T09:20:21;98.18;;;42.72;;
16246;SDS011;8231;50.866;7.944;2023-12-07T09:22:49;121.65;;;47.42;;
16246;SDS011;8231;50.866;7.944;2023-12-07T09:25:18;93.00;;;41.92;;
16246;SDS011;8231;50.866;7.944;2023-12-07T09:27:47;104.13;;;40.78;;
16246;SDS011;8231;50.866;7.944;2023-12-07T09:30:16;139.10;;;39.45;;
16246;SDS011;8231;50.866;7.944;2023-12-07T09:32:44;60.05;;;29.10;;
16246;SDS011;8231;50.866;7.944;2023-12-07T09:35:13;99.40;;;28.33;;
16246;SDS011;8231;50.866;7.944;2023-12-07T09:37:46;62.88;;;24.02;;
16246;SDS011;8231;50.866;7.944;2023-12-07T09:40:15;86.78;;;21.92;;
16246;SDS011;8231;50.866;7.944;2023-12-07T09:42:45;22.92;;;15.75;;
16246;SDS011;8231;50.866;7.944;2023-12-07T09:45:14;58.17;;;17.88;;
16246;SDS011;8231;50.866;7.944;2023-12-07T09:47:46;56.87;;;17.57;;
16246;SDS011;8231;50.866;7.944;2023-12-07T09:50:18;25.15;;;14.68;;
16246;SDS011;8231;50.866;7.944;2023-12-07T09:52:49;27.17;;;15.65;;
16246;SDS011;8231;50.866;7.944;2023-12-07T09:55:33;20.40;;;17.48;;
16246;SDS011;8231;50.866;7.944;2023-12-07T09:58:03;18.67;;;15.60;;
16246;SDS011;8231;50.866;7.944;2023-12-07T10:00:32;30.20;;;18.65;;
16246;SDS011;8231;50.866;7.944;2023-12-07T10:03:01;30.45;;;19.30;;
16246;SDS011;8231;50.866;7.944;2023-12-07T10:05:30;29.35;;;19.83;;
16246;SDS011;8231;50.866;7.944;2023-12-07T10:07:58;47.03;;;20.17;;
16246;SDS011;8231;50.866;7.944;2023-12-07T10:10:27;48.58;;;21.88;;
16246;SDS011;8231;50.866;7.944;2023-12-07T10:12:56;110.82;;;22.25;;
16246;SDS011;8231;50.866;7.944;2023-12-07T10:15:26;67.38;;;21.67;;
16246;SDS011;8231;50.866;7.944;2023-12-07T10:17:55;25.77;;;17.42;;
16246;SDS011;8231;50.866;7.944;2023-12-07T10:20:26;72.85;;;24.85;;
16246;SDS011;8231;50.866;7.944;2023-12-07T10:23:06;29.42;;;18.20;;
16246;SDS011;8231;50.866;7.944;2023-12-07T10:25:37;33.25;;;19.80;;
16246;SDS011;8231;50.866;7.944;2023-12-07T10:28:05;37.33;;;18.60;;
16246;SDS011;8231;50.866;7.944;2023-12-07T10:30:35;44.60;;;18.88;;
16246;SDS011;8231;50.866;7.944;2023-12-07T10:33:07;49.42;;;23.00;;
16246;SDS011;8231;50.866;7.944;2023-12-07T10:35:38;27.05;;;18.30;;
16246;SDS011;8231;50.866;7.944;2023-12-07T10:38:08;29.05;;;21.58;;
16246;SDS011;8231;50.866;7.944;2023-12-07T10:40:40;29.63;;;21.88;;
16246;SDS011;8231;50.866;7.944;2023-12-07T10:43:09;24.25;;;20.08;;
16246;SDS011;8231;50.866;7.944;2023-12-07T10:45:37;29.27;;;24.88;;
16246;SDS011;8231;50.866;7.944;2023-12-07T10:48:07;30.40;;;22.30;;
16246;SDS011;8231;50.866;7.944;2023-12-07T10:50:36;26.40;;;22.30;;
16246;SDS011;8231;50.866;7.944;2023-12-07T10:53:14;24.67;;;18.88;;
16246;SDS011;8231;50.866;7.944;2023-12-07T10:55:51;25.15;;;21.80;;
16246;SDS011;8231;50.866;7.944;2023-12-07T10:58:22;29.63;;;22.25;;
16246;SDS011;8231;50.866;7.944;2023-12-07T11:00:53;25.65;;;21.95;;
16246;SDS011;8231;50.866;7.944;2023-12-07T11:03:22;19.70;;;17.35;;
16246;SDS011;8231;50.866;7.944;2023-12-07T11:05:51;18.83;;;16.13;;
16246;SDS011;8231;50.866;7.944;2023-12-07T11:08:23;20.27;;;17.75;;
16246;SDS011;8231;50.866;7.944;2023-12-07T11:10:58;18.23;;;15.27;;
16246;SDS011;8231;50.866;7.944;2023-12-07T11:13:33;13.07;;;11.05;;
16246;SDS011;8231;50.866;7.944;2023-12-07T11:16:04;14.10;;;11.38;;
16246;SDS011;8231;50.866;7.944;2023-12-07T11:18:33;12.88;;;11.13;;
16246;SDS011;8231;50.866;7.944;2023-12-07T11:21:01;12.55;;;10.93;;
16246;SDS011;8231;50.866;7.944;2023-12-07T11:23:30;14.73;;;13.32;;
16246;SDS011;8231;50.866;7.944;2023-12-07T11:25:59;14.68;;;12.50;;
16246;SDS011;8231;50.866;7.944;2023-12-07T11:28:34;14.55;;;13.00;;
16246;SDS011;8231;50.866;7.944;2023-12-07T11:31:03;16.60;;;14.85;;
16246;SDS011;8231;50.866;7.944;2023-12-07T11:33:33;15.25;;;13.52;;
16246;SDS011;8231;50.866;7.944;2023-12-07T11:36:06;13.98;;;11.15;;
16246;SDS011;8231;50.866;7.944;2023-12-07T11:38:37;12.70;;;11.48;;
16246;SDS011;8231;50.866;7.944;2023-12-07T11:41:06;14.02;;;12.23;;
16246;SDS011;8231;50.866;7.944;2023-12-07T11:43:41;13.68;;;12.25;;
16246;SDS011;8231;50.866;7.944;2023-12-07T11:46:13;13.23;;;11.93;;
16246;SDS011;8231;50.866;7.944;2023-12-07T11:48:48;47.63;;;18.83;;
16246;SDS011;8231;50.866;7.944;2023-12-07T11:51:17;17.10;;;13.90;;
16246;SDS011;8231;50.866;7.944;2023-12-07T11:53:46;19.30;;;17.40;;
16246;SDS011;8231;50.866;7.944;2023-12-07T11:56:17;13.85;;;12.45;;
16246;SDS011;8231;50.866;7.944;2023-12-07T11:58:48;15.60;;;12.75;;
16246;SDS011;8231;50.866;7.944;2023-12-07T12:01:17;16.90;;;13.38;;
16246;SDS011;8231;50.866;7.944;2023-12-07T12:03:45;15.20;;;13.60;;
16246;SDS011;8231;50.866;7.944;2023-12-07T12:06:15;14.07;;;12.68;;
16246;SDS011;8231;50.866;7.944;2023-12-07T12:08:44;14.80;;;13.32;;
16246;SDS011;8231;50.866;7.944;2023-12-07T12:11:14;13.82;;;12.43;;
16246;SDS011;8231;50.866;7.944;2023-12-07T12:13:42;22.95;;;20.23;;
16246;SDS011;8231;50.866;7.944;2023-12-07T12:16:13;13.10;;;11.38;;
16246;SDS011;8231;50.866;7.944;2023-12-07T12:18:41;12.75;;;11.45;;
16246;SDS011;8231;50.866;7.944;2023-12-07T12:21:09;13.07;;;10.95;;
16246;SDS011;8231;50.866;7.944;2023-12-07T12:23:38;12.90;;;11.15;;
16246;SDS011;8231;50.866;7.944;2023-12-07T12:26:07;10.85;;;9.57;;
16246;SDS011;8231;50.866;7.944;2023-12-07T12:28:38;10.75;;;9.43;;
16246;SDS011;8231;50.866;7.944;2023-12-07T12:31:10;10.80;;;9.60;;
16246;SDS011;8231;50.866;7.944;2023-12-07T12:33:39;10.43;;;9.43;;
16246;SDS011;8231;50.866;7.944;2023-12-07T12:36:07;9.85;;;8.02;;
16246;SDS011;8231;50.866;7.944;2023-12-07T12:38:37;9.55;;;8.38;;
16246;SDS011;8231;50.866;7.944;2023-12-07T12:41:10;9.00;;;7.72;;
16246;SDS011;8231;50.866;7.944;2023-12-07T12:43:40;11.20;;;10.15;;
16246;SDS011;8231;50.866;7.944;2023-12-07T12:46:10;10.50;;;8.20;;
16246;SDS011;8231;50.866;7.944;2023-12-07T12:48:51;9.55;;;8.55;;
16246;SDS011;8231;50.866;7.944;2023-12-07T12:51:24;9.30;;;8.30;;
16246;SDS011;8231;50.866;7.944;2023-12-07T12:53:53;10.52;;;7.70;;
16246;SDS011;8231;50.866;7.944;2023-12-07T12:56:22;12.80;;;11.70;;
16246;SDS011;8231;50.866;7.944;2023-12-07T12:58:52;8.25;;;7.25;;
16246;SDS011;8231;50.866;7.944;2023-12-07T13:01:28;8.20;;;7.38;;
16246;SDS011;8231;50.866;7.944;2023-12-07T13:03:56;9.48;;;8.60;;
16246;SDS011;8231;50.866;7.944;2023-12-07T13:06:25;10.77;;;9.77;;
16246;SDS011;8231;50.866;7.944;2023-12-07T13:08:53;11.77;;;10.43;;
16246;SDS011;8231;50.866;7.944;2023-12-07T13:11:22;12.10;;;11.10;;
16246;SDS011;8231;50.866;7.944;2023-12-07T13:13:50;17.58;;;13.45;;
16246;SDS011;8231;50.866;7.944;2023-12-07T13:16:19;14.55;;;11.50;;
16246;SDS011;8231;50.866;7.944;2023-12-07T13:18:48;18.35;;;16.77;;
16246;SDS011;8231;50.866;7.944;2023-12-07T13:21:16;10.57;;;9.65;;
16246;SDS011;8231;50.866;7.944;2023-12-07T13:23:44;10.70;;;8.25;;
16246;SDS011;8231;50.866;7.944;2023-12-07T13:26:14;8.90;;;8.00;;
16246;SDS011;8231;50.866;7.944;2023-12-07T13:28:42;9.63;;;7.68;;
16246;SDS011;8231;50.866;7.944;2023-12-07T13:31:10;8.90;;;7.75;;
16246;SDS011;8231;50.866;7.944;2023-12-07T13:33:40;11.18;;;10.13;;
16246;SDS011;8231;50.866;7.944;2023-12-07T13:36:21;11.52;;;10.43;;
16246;SDS011;8231;50.866;7.944;2023-12-07T13:38:52;8.43;;;7.47;;
16246;SDS011;8231;50.866;7.944;2023-12-07T13:41:20;8.93;;;8.00;;
16246;SDS011;8231;50.866;7.944;2023-12-07T13:43:49;13.05;;;11.68;;
16246;SDS011;8231;50.866;7.944;2023-12-07T13:46:18;11.38;;;10.27;;
16246;SDS011;8231;50.866;7.944;2023-12-07T13:48:48;9.05;;;8.15;;
16246;SDS011;8231;50.866;7.944;2023-12-07T13:51:16;15.38;;;13.93;;
16246;SDS011;8231;50.866;7.944;2023-12-07T13:53:44;17.23;;;15.60;;
16246;SDS011;8231;50.866;7.944;2023-12-07T13:56:15;11.20;;;10.05;;
16246;SDS011;8231;50.866;7.944;2023-12-07T13:58:43;11.05;;;9.98;;
16246;SDS011;8231;50.866;7.944;2023-12-07T14:01:11;13.48;;;12.23;;
16246;SDS011;8231;50.866;7.944;2023-12-07T14:03:39;13.80;;;12.57;;
16246;SDS011;8231;50.866;7.944;2023-12-07T14:06:10;9.00;;;8.10;;
16246;SDS011;8231;50.866;7.944;2023-12-07T14:08:53;13.80;;;10.70;;
16246;SDS011;8231;50.866;7.944;2023-12-07T14:11:21;10.18;;;9.10;;
16246;SDS011;8231;50.866;7.944;2023-12-07T14:13:49;10.40;;;9.25;;
16246;SDS011;8231;50.866;7.944;2023-12-07T14:16:21;9.07;;;8.18;;
16246;SDS011;8231;50.866;7.944;2023-12-07T14:19:08;8.40;;;7.60;;
16246;SDS011;8231;50.866;7.944;2023-12-07T14:21:42;9.65;;;8.65;;
16246;SDS011;8231;50.866;7.944;2023-12-07T14:24:21;12.15;;;9.90;;
16246;SDS011;8231;50.866;7.944;2023-12-07T14:26:50;10.93;;;9.85;;
16246;SDS011;8231;50.866;7.944;2023-12-07T14:29:19;10.43;;;9.40;;
16246;SDS011;8231;50.866;7.944;2023-12-07T14:31:53;10.65;;;8.93;;
16246;SDS011;8231;50.866;7.944;2023-12-07T14:34:22;11.82;;;10.70;;
16246;SDS011;8231;50.866;7.944;2023-12-07T14:37:02;15.43;;;13.90;;
16246;SDS011;8231;50.866;7.944;2023-12-07T14:39:32;18.55;;;16.60;;
16246;SDS011;8231;50.866;7.944;2023-12-07T14:42:00;13.27;;;11.82;;